JER weather

Jersey Airport
Saint Helier, Jersey

Public forecast

Using degrees Celsius for public forecast. Weather courtesy of forecast.io.

METAR (pilot weather report)

Retrieved 2019/07/17 16:50 UTC (48 minutes ago):

EGJJ 171650Z 29013KT 9999 FEW008 18/15 Q1015

TAF (pilot weather forecast)

Closest forecast is Dinard-Pleurtuit-Saint-Malo Airport, 37.5 nm (69.5 km) S. Retrieved 2019/07/17 12:46 UTC (5 hours ago):

TAF LFRD 171100Z 1712/1812 34010KT CAVOK BECMG 1722/1724 VRB03KT BECMG 1803/1805 21010KT BKN015 TEMPO 1805/1808 4000 RADZ BKN008 BECMG 1808/1810 31010KT BKN030